createdAt,value
2017-11-09T00:00:13.062Z,36.40
2017-11-09T00:02:46.138Z,36.40
2017-11-09T00:05:19.369Z,34.47
2017-11-09T00:07:46.896Z,36.43
2017-11-09T00:10:14.481Z,35.00
2017-11-09T00:12:42.329Z,35.87
2017-11-09T00:15:09.848Z,36.53
2017-11-09T00:17:40.250Z,37.20
2017-11-09T00:20:07.831Z,37.27
2017-11-09T00:22:35.374Z,36.20
2017-11-09T00:25:02.908Z,35.70
2017-11-09T00:27:30.569Z,38.30
2017-11-09T00:29:58.115Z,32.70
2017-11-09T00:32:25.650Z,35.50
2017-11-09T00:34:53.309Z,33.43
2017-11-09T00:37:20.829Z,33.00
2017-11-09T00:39:48.356Z,34.77
2017-11-09T00:42:16.038Z,38.20
2017-11-09T00:44:43.567Z,37.80
2017-11-09T00:47:11.090Z,36.93
2017-11-09T00:49:38.798Z,37.37
2017-11-09T00:52:06.330Z,37.27
2017-11-09T00:54:33.861Z,35.40
2017-11-09T00:57:01.411Z,35.80
2017-11-09T00:59:29.002Z,35.10
2017-11-09T01:01:56.543Z,35.20
2017-11-09T01:04:24.084Z,34.47
2017-11-09T01:06:52.033Z,36.97
2017-11-09T01:09:19.576Z,37.83
2017-11-09T01:11:47.115Z,35.83
2017-11-09T01:14:14.827Z,35.30
2017-11-09T01:16:42.350Z,35.50
2017-11-09T01:19:09.906Z,34.47
2017-11-09T01:21:37.478Z,36.83
2017-11-09T01:24:05.067Z,32.57
2017-11-09T01:26:32.605Z,34.97
2017-11-09T01:29:00.319Z,37.10
2017-11-09T01:31:28.412Z,32.50
2017-11-09T01:33:55.964Z,34.23
2017-11-09T01:36:23.503Z,35.30
2017-11-09T01:38:51.053Z,36.33
2017-11-09T01:41:18.805Z,35.57
2017-11-09T01:43:46.340Z,33.70
2017-11-09T01:46:13.867Z,33.53
2017-11-09T01:48:41.439Z,35.40
2017-11-09T01:51:08.979Z,33.93
2017-11-09T01:53:36.502Z,34.23
2017-11-09T01:56:04.115Z,34.13
2017-11-09T01:58:31.647Z,35.40
2017-11-09T02:00:59.207Z,34.67
2017-11-09T02:03:26.834Z,34.83
2017-11-09T02:05:54.392Z,33.53
2017-11-09T02:08:21.911Z,32.27
2017-11-09T02:10:49.490Z,33.00
2017-11-09T02:13:17.025Z,33.93
2017-11-09T02:15:44.547Z,33.20
2017-11-09T02:18:12.137Z,34.20
2017-11-09T02:20:39.687Z,33.37
2017-11-09T02:23:07.768Z,32.20
2017-11-09T02:25:35.317Z,37.00
2017-11-09T02:28:02.879Z,32.43
2017-11-09T02:30:30.786Z,31.37
2017-11-09T02:32:58.357Z,31.43
2017-11-09T02:35:25.883Z,32.30
2017-11-09T02:37:53.442Z,32.57
2017-11-09T02:40:21.383Z,34.70
2017-11-09T02:42:48.929Z,36.27
2017-11-09T02:45:16.475Z,36.10
2017-11-09T02:47:44.199Z,34.63
2017-11-09T02:50:11.764Z,34.60
2017-11-09T02:52:39.295Z,33.47
2017-11-09T02:55:06.891Z,37.43
2017-11-09T02:57:34.432Z,36.50
2017-11-09T03:00:02.134Z,32.90
2017-11-09T03:02:29.848Z,33.03
2017-11-09T03:04:57.365Z,32.40
2017-11-09T03:07:24.893Z,33.80
2017-11-09T03:09:52.491Z,34.87
2017-11-09T03:12:20.023Z,37.03
2017-11-09T03:14:47.582Z,35.83
2017-11-09T03:17:15.162Z,33.23
2017-11-09T03:19:42.690Z,33.40
2017-11-09T03:22:10.219Z,31.53
2017-11-09T03:24:37.903Z,31.97
2017-11-09T03:27:05.448Z,34.83
2017-11-09T03:29:32.975Z,31.50
2017-11-09T03:32:00.756Z,32.10
2017-11-09T03:34:28.304Z,32.43
2017-11-09T03:36:55.839Z,32.97
2017-11-09T03:39:23.378Z,31.37
2017-11-09T03:41:50.908Z,32.43
2017-11-09T03:44:18.687Z,33.00
2017-11-09T03:46:46.243Z,34.37
2017-11-09T03:49:13.769Z,32.27
2017-11-09T03:51:41.392Z,31.93
2017-11-09T03:54:08.919Z,33.77
2017-11-09T03:56:36.454Z,31.33
2017-11-09T03:59:04.425Z,32.73
2017-11-09T04:01:31.950Z,31.53
2017-11-09T04:03:59.471Z,29.07
2017-11-09T04:06:27.025Z,32.33
2017-11-09T04:08:54.591Z,28.73
2017-11-09T04:11:22.124Z,30.33
2017-11-09T04:13:49.681Z,29.23
2017-11-09T04:16:17.227Z,30.73
2017-11-09T04:18:44.752Z,31.53
2017-11-09T04:21:12.307Z,33.23
2017-11-09T04:23:39.852Z,38.07
2017-11-09T04:26:07.430Z,47.20
2017-11-09T04:28:34.958Z,46.40
2017-11-09T04:31:02.503Z,44.10
2017-11-09T04:33:30.260Z,45.83
2017-11-09T04:35:57.803Z,46.67
2017-11-09T04:38:25.339Z,48.37
2017-11-09T04:40:52.895Z,47.23
2017-11-09T04:43:20.490Z,45.93
2017-11-09T04:45:48.031Z,42.97
2017-11-09T04:48:15.552Z,50.50
2017-11-09T04:50:43.111Z,47.43
2017-11-09T04:53:10.651Z,50.20
2017-11-09T04:55:38.209Z,53.40
2017-11-09T04:58:05.767Z,52.83
2017-11-09T05:00:33.290Z,52.87
2017-11-09T05:03:01.010Z,47.90
2017-11-09T05:05:28.538Z,49.07
2017-11-09T05:07:56.079Z,50.70
2017-11-09T05:10:23.666Z,48.63
2017-11-09T05:12:51.239Z,45.10
2017-11-09T05:15:18.772Z,51.47
2017-11-09T05:17:46.872Z,46.70
2017-11-09T05:20:14.410Z,53.60
2017-11-09T05:22:41.934Z,53.37
2017-11-09T05:25:09.521Z,38.30
2017-11-09T05:27:37.068Z,55.53
2017-11-09T05:30:04.654Z,45.80
2017-11-09T05:32:32.706Z,44.90
2017-11-09T05:35:00.267Z,39.80
2017-11-09T05:37:27.803Z,41.00
2017-11-09T05:39:55.365Z,38.73
2017-11-09T05:42:22.962Z,35.30
2017-11-09T05:44:50.490Z,39.87
2017-11-09T05:47:18.018Z,40.13
2017-11-09T05:49:45.586Z,43.87
2017-11-09T05:52:13.131Z,37.90
2017-11-09T05:54:40.685Z,54.90
2017-11-09T05:57:08.456Z,41.10
2017-11-09T05:59:35.981Z,38.27
2017-11-09T06:02:03.510Z,36.40
2017-11-09T06:04:31.567Z,39.80
2017-11-09T06:06:59.098Z,37.53
2017-11-09T06:09:26.628Z,47.80
2017-11-09T06:11:54.392Z,44.87
2017-11-09T06:14:21.934Z,38.13
2017-11-09T06:16:49.462Z,37.03
2017-11-09T06:19:17.042Z,39.30
2017-11-09T06:21:44.567Z,35.63
2017-11-09T06:24:12.093Z,37.30
2017-11-09T06:26:39.758Z,33.83
2017-11-09T06:29:07.272Z,39.73
2017-11-09T06:31:34.802Z,35.13
2017-11-09T06:34:02.811Z,36.77
2017-11-09T06:36:30.334Z,39.37
2017-11-09T06:38:57.863Z,37.20
2017-11-09T06:41:25.565Z,36.23
2017-11-09T06:43:53.080Z,37.77
2017-11-09T06:46:20.611Z,40.93
2017-11-09T06:48:48.181Z,41.27
2017-11-09T06:51:15.702Z,38.47
2017-11-09T06:53:43.234Z,39.23
2017-11-09T06:56:10.789Z,41.23
2017-11-09T06:58:38.310Z,39.37
2017-11-09T07:01:05.898Z,42.03
2017-11-09T07:03:33.426Z,38.30
2017-11-09T07:06:00.962Z,41.20
2017-11-09T07:08:28.555Z,44.50
2017-11-09T07:10:56.073Z,42.10
2017-11-09T07:13:23.601Z,46.87
2017-11-09T07:15:51.191Z,41.63
2017-11-09T07:18:18.709Z,43.20
2017-11-09T07:20:46.249Z,41.97
2017-11-09T07:23:14.001Z,42.27
2017-11-09T07:25:41.542Z,44.30
2017-11-09T07:28:09.075Z,44.23
2017-11-09T07:30:36.637Z,42.80
2017-11-09T07:33:04.187Z,48.73
2017-11-09T07:35:31.745Z,47.30
2017-11-09T07:37:59.652Z,50.40
2017-11-09T07:40:27.174Z,48.07
2017-11-09T07:42:54.701Z,44.00
2017-11-09T07:45:22.389Z,45.07
2017-11-09T07:47:49.911Z,45.43
2017-11-09T07:50:17.450Z,48.10
2017-11-09T07:52:45.044Z,46.93
2017-11-09T07:55:12.570Z,51.07
2017-11-09T07:57:40.089Z,49.73
2017-11-09T08:00:07.643Z,46.40
2017-11-09T08:02:35.174Z,48.83
2017-11-09T08:05:02.726Z,45.97
2017-11-09T08:07:30.249Z,48.10
2017-11-09T08:09:57.971Z,49.27
2017-11-09T08:12:25.493Z,47.33
2017-11-09T08:14:53.014Z,46.97
2017-11-09T08:17:20.607Z,46.83
2017-11-09T08:19:48.166Z,46.27
2017-11-09T08:22:15.676Z,43.33
2017-11-09T08:24:45.674Z,49.57
2017-11-09T08:27:14.983Z,47.33
2017-11-09T08:29:49.086Z,42.73
2017-11-09T08:32:20.598Z,46.23
2017-11-09T08:34:48.170Z,46.87
2017-11-09T08:37:15.689Z,41.90
2017-11-09T08:39:43.227Z,40.13
2017-11-09T08:42:10.801Z,42.90
2017-11-09T08:44:38.358Z,44.47
2017-11-09T08:47:05.885Z,51.50
2017-11-09T08:49:33.593Z,43.53
2017-11-09T08:52:01.127Z,44.30
2017-11-09T08:54:28.668Z,47.47
2017-11-09T08:56:56.418Z,47.07
2017-11-09T08:59:23.933Z,43.73
2017-11-09T09:01:51.449Z,44.60
2017-11-09T09:04:19.394Z,45.97
2017-11-09T09:06:47.870Z,44.10
2017-11-09T09:09:15.403Z,44.10
2017-11-09T09:11:42.961Z,40.90
2017-11-09T09:14:10.508Z,44.03
2017-11-09T09:16:38.182Z,43.87
2017-11-09T09:19:05.717Z,39.80
2017-11-09T09:21:35.863Z,39.77
2017-11-09T09:24:07.369Z,38.60
2017-11-09T09:26:49.823Z,34.90
2017-11-09T09:29:29.273Z,35.17
2017-11-09T09:31:56.822Z,36.83
2017-11-09T09:34:30.011Z,39.13
2017-11-09T09:37:05.600Z,36.80
2017-11-09T09:39:50.555Z,36.17
2017-11-09T09:42:18.221Z,40.73
2017-11-09T09:44:45.766Z,38.70
2017-11-09T09:47:13.307Z,37.90
2017-11-09T09:49:40.869Z,36.70
2017-11-09T09:52:08.413Z,37.17
2017-11-09T09:54:35.946Z,40.10
2017-11-09T09:57:04.027Z,39.80
2017-11-09T09:59:31.557Z,40.73
2017-11-09T10:01:59.077Z,38.87
2017-11-09T10:04:26.764Z,38.00
2017-11-09T10:06:54.300Z,37.23
2017-11-09T10:09:21.812Z,39.33
2017-11-09T10:11:49.579Z,40.00
2017-11-09T10:14:17.130Z,40.73
2017-11-09T10:16:44.669Z,38.67
2017-11-09T10:19:12.693Z,39.63
2017-11-09T10:21:40.218Z,40.73
2017-11-09T10:24:07.741Z,38.90
2017-11-09T10:26:35.281Z,39.80
2017-11-09T10:29:02.836Z,39.57
2017-11-09T10:31:30.366Z,41.60
2017-11-09T10:33:57.938Z,41.97
2017-11-09T10:36:25.498Z,38.97
2017-11-09T10:38:53.027Z,39.90
2017-11-09T10:41:20.946Z,40.00
2017-11-09T10:43:48.460Z,38.63
2017-11-09T10:46:15.987Z,41.27
2017-11-09T10:48:43.558Z,38.30
2017-11-09T10:51:11.133Z,39.87
2017-11-09T10:53:38.662Z,37.47
2017-11-09T10:56:06.211Z,39.37
2017-11-09T10:58:34.264Z,42.80
2017-11-09T11:01:01.789Z,40.03
2017-11-09T11:03:29.320Z,37.07
2017-11-09T11:05:56.894Z,38.17
2017-11-09T11:08:24.409Z,43.60
2017-11-09T11:10:51.942Z,41.70
2017-11-09T11:13:19.519Z,43.00
2017-11-09T11:15:47.046Z,36.17
2017-11-09T11:18:14.571Z,38.53
2017-11-09T11:20:42.145Z,38.87
2017-11-09T11:23:09.670Z,41.73
2017-11-09T11:25:37.206Z,39.40
2017-11-09T11:28:04.756Z,40.03
2017-11-09T11:30:32.518Z,41.90
2017-11-09T11:33:00.538Z,38.30
2017-11-09T11:35:28.166Z,42.50
2017-11-09T11:37:56.498Z,40.33
2017-11-09T11:40:24.110Z,41.50
2017-11-09T11:42:51.646Z,41.27
2017-11-09T11:45:19.195Z,41.17
2017-11-09T11:47:46.766Z,43.20
2017-11-09T11:50:14.285Z,39.77
2017-11-09T11:52:41.818Z,42.00
2017-11-09T11:55:09.872Z,39.50
2017-11-09T11:57:37.397Z,42.60
2017-11-09T12:00:04.934Z,38.53
2017-11-09T12:02:32.473Z,40.10
2017-11-09T12:05:00.823Z,39.77
2017-11-09T12:07:28.870Z,40.37
2017-11-09T12:09:56.390Z,40.33
2017-11-09T12:12:23.926Z,41.07
2017-11-09T12:14:51.474Z,42.97
2017-11-09T12:17:19.058Z,38.80
2017-11-09T12:19:46.590Z,42.40
2017-11-09T12:22:14.105Z,40.00
2017-11-09T12:24:41.787Z,40.30
2017-11-09T12:27:09.319Z,42.93
2017-11-09T12:29:36.926Z,37.70
2017-11-09T12:32:04.527Z,40.67
2017-11-09T12:34:32.054Z,36.97
2017-11-09T12:36:59.574Z,40.43
2017-11-09T12:39:27.121Z,39.40
2017-11-09T12:41:54.648Z,38.90
2017-11-09T12:44:22.200Z,35.83
2017-11-09T12:46:49.809Z,38.80
2017-11-09T12:49:17.344Z,39.13
2017-11-09T12:51:44.874Z,40.17
2017-11-09T12:54:12.433Z,37.57
2017-11-09T12:56:40.007Z,39.10
2017-11-09T12:59:07.535Z,38.57
2017-11-09T13:01:35.058Z,39.00
2017-11-09T13:04:02.736Z,36.87
2017-11-09T13:06:30.279Z,34.80
2017-11-09T13:08:57.815Z,38.47
2017-11-09T13:11:25.409Z,36.50
2017-11-09T13:13:52.966Z,38.63
2017-11-09T13:16:20.506Z,39.10
2017-11-09T13:18:48.125Z,38.40
2017-11-09T13:21:15.665Z,40.53
2017-11-09T13:23:43.217Z,40.03
2017-11-09T13:26:10.902Z,36.40
2017-11-09T13:28:38.420Z,37.50
2017-11-09T13:31:05.947Z,40.70
2017-11-09T13:33:33.736Z,36.20
2017-11-09T13:36:01.330Z,42.00
2017-11-09T13:38:28.857Z,38.27
2017-11-09T13:40:56.847Z,39.90
2017-11-09T13:43:24.384Z,40.70
2017-11-09T13:45:51.927Z,38.87
2017-11-09T13:48:19.483Z,39.37
2017-11-09T13:50:46.998Z,40.20
2017-11-09T13:53:14.569Z,41.80
2017-11-09T13:55:42.093Z,41.00
2017-11-09T13:58:09.627Z,39.63
2017-11-09T14:00:40.190Z,44.90
2017-11-09T14:03:07.726Z,40.00
2017-11-09T14:05:35.257Z,42.40
2017-11-09T14:08:02.834Z,41.80
2017-11-09T14:10:30.368Z,41.07
2017-11-09T14:12:57.893Z,42.20
2017-11-09T14:15:25.456Z,40.30
2017-11-09T14:17:52.996Z,39.57
2017-11-09T14:20:20.620Z,40.33
2017-11-09T14:22:48.138Z,42.63
2017-11-09T14:25:15.658Z,41.70
2017-11-09T14:27:43.283Z,45.00
2017-11-09T14:30:10.806Z,45.87
2017-11-09T14:32:38.321Z,42.63
2017-11-09T14:35:05.997Z,40.93
2017-11-09T14:37:33.518Z,45.40
2017-11-09T14:40:01.038Z,42.47
2017-11-09T14:42:28.943Z,45.57
2017-11-09T14:44:59.240Z,42.17
2017-11-09T14:47:26.764Z,42.30
2017-11-09T14:49:54.517Z,42.00
2017-11-09T14:52:22.047Z,44.40
2017-11-09T14:54:49.606Z,44.30
2017-11-09T14:57:17.349Z,42.83
2017-11-09T14:59:44.865Z,46.37
2017-11-09T15:02:12.402Z,42.60
2017-11-09T15:04:39.978Z,46.53
2017-11-09T15:07:07.506Z,44.43
2017-11-09T15:09:35.143Z,41.90
2017-11-09T15:12:03.089Z,43.70
2017-11-09T15:14:30.629Z,44.93
2017-11-09T15:16:58.515Z,43.87
2017-11-09T15:19:26.123Z,45.83
2017-11-09T15:21:53.654Z,45.50
2017-11-09T15:24:22.142Z,46.03
2017-11-09T15:26:49.677Z,47.20
2017-11-09T15:29:17.230Z,45.00
2017-11-09T15:31:47.614Z,43.00
2017-11-09T15:34:15.171Z,45.00
2017-11-09T15:36:42.749Z,46.10
2017-11-09T15:39:10.282Z,42.87
2017-11-09T15:41:37.818Z,43.27
2017-11-09T15:44:05.530Z,43.03
2017-11-09T15:46:33.075Z,46.13
2017-11-09T15:49:00.598Z,45.60
2017-11-09T15:51:28.553Z,41.57
2017-11-09T15:53:56.080Z,43.87
2017-11-09T15:56:23.614Z,45.63
2017-11-09T15:58:51.377Z,41.50
2017-11-09T16:01:18.896Z,43.50
2017-11-09T16:03:46.417Z,46.40
2017-11-09T16:06:14.718Z,43.90
2017-11-09T16:08:42.242Z,45.93
2017-11-09T16:11:09.776Z,44.17
2017-11-09T16:13:37.426Z,41.97
2017-11-09T16:16:04.953Z,43.17
2017-11-09T16:18:38.835Z,44.03
2017-11-09T16:21:06.374Z,44.70
2017-11-09T16:23:33.920Z,44.23
2017-11-09T16:26:01.507Z,44.90
2017-11-09T16:28:29.037Z,44.97
2017-11-09T16:30:56.562Z,47.60
2017-11-09T16:33:24.541Z,45.53
2017-11-09T16:35:52.074Z,44.33
2017-11-09T16:38:19.606Z,46.87
2017-11-09T16:40:47.189Z,49.37
2017-11-09T16:43:14.717Z,48.17
2017-11-09T16:45:42.657Z,43.97
2017-11-09T16:48:10.208Z,46.73
2017-11-09T16:50:37.732Z,44.33
2017-11-09T16:53:07.202Z,45.40
2017-11-09T16:55:34.720Z,42.70
2017-11-09T16:58:02.240Z,58.33
2017-11-09T17:00:29.813Z,46.70
2017-11-09T17:02:57.342Z,47.77
2017-11-09T17:05:26.601Z,45.63
2017-11-09T17:07:54.180Z,52.07
2017-11-09T17:10:21.716Z,70.53
2017-11-09T17:12:49.256Z,46.80
2017-11-09T17:15:21.035Z,45.27
2017-11-09T17:17:48.549Z,48.83
2017-11-09T17:20:16.070Z,49.13
2017-11-09T17:22:43.634Z,47.67
2017-11-09T17:25:11.174Z,68.50
2017-11-09T17:27:38.737Z,71.63
2017-11-09T17:30:06.310Z,48.93
2017-11-09T17:32:33.832Z,46.20
2017-11-09T17:35:01.380Z,44.43
2017-11-09T17:37:29.832Z,45.50
2017-11-09T17:39:57.389Z,42.77
2017-11-09T17:42:26.898Z,45.30
2017-11-09T17:44:54.425Z,46.70
2017-11-09T17:47:21.986Z,63.13
2017-11-09T17:49:49.684Z,41.63
2017-11-09T17:52:17.204Z,43.90
2017-11-09T17:54:44.736Z,42.63
2017-11-09T17:57:12.489Z,45.17
2017-11-09T17:59:42.022Z,43.63
2017-11-09T18:02:09.557Z,50.10
2017-11-09T18:04:37.125Z,50.67
2017-11-09T18:07:04.667Z,45.87
2017-11-09T18:09:32.189Z,44.87
2017-11-09T18:11:59.765Z,44.10
2017-11-09T18:14:27.298Z,44.07
2017-11-09T18:16:54.845Z,42.60
2017-11-09T18:19:22.390Z,44.57
2017-11-09T18:21:49.910Z,43.90
2017-11-09T18:24:17.500Z,39.30
2017-11-09T18:26:45.034Z,40.70
2017-11-09T18:29:12.559Z,41.23
2017-11-09T18:31:42.435Z,40.43
2017-11-09T18:34:09.953Z,37.53
2017-11-09T18:36:37.497Z,41.33
2017-11-09T18:39:05.092Z,34.73
2017-11-09T18:41:32.608Z,38.67
2017-11-09T18:44:00.196Z,37.80
2017-11-09T18:46:27.734Z,39.20
2017-11-09T18:48:55.306Z,40.60
2017-11-09T18:51:22.853Z,41.20
2017-11-09T18:53:50.379Z,29.63
2017-11-09T18:56:18.033Z,35.60
2017-11-09T18:58:46.425Z,33.23
2017-11-09T19:01:13.946Z,35.27
2017-11-09T19:03:41.681Z,31.23
2017-11-09T19:06:09.330Z,32.10
2017-11-09T19:08:37.008Z,34.00
2017-11-09T19:11:04.611Z,31.90
2017-11-09T19:13:32.141Z,31.27
2017-11-09T19:15:59.667Z,29.40
2017-11-09T19:18:27.749Z,27.87
2017-11-09T19:20:55.311Z,28.10
2017-11-09T19:23:22.834Z,31.10
2017-11-09T19:25:51.365Z,30.67
2017-11-09T19:28:19.002Z,31.60
2017-11-09T19:30:46.535Z,30.70
2017-11-09T19:33:14.691Z,31.60
2017-11-09T19:35:44.706Z,31.63
2017-11-09T19:38:12.529Z,29.47
2017-11-09T19:40:41.544Z,30.90
2017-11-09T19:43:12.011Z,29.50
2017-11-09T19:45:39.652Z,31.07
2017-11-09T19:48:07.509Z,31.90
2017-11-09T19:50:36.042Z,30.87
2017-11-09T19:53:03.591Z,29.50
2017-11-09T19:55:31.102Z,31.20
2017-11-09T19:57:58.809Z,34.43
2017-11-09T20:00:26.335Z,31.50
2017-11-09T20:02:54.016Z,32.23
2017-11-09T20:05:22.209Z,34.70
2017-11-09T20:07:49.868Z,31.60
2017-11-09T20:10:17.563Z,32.00
2017-11-09T20:12:45.556Z,30.73
2017-11-09T20:15:13.081Z,29.57
2017-11-09T20:17:40.588Z,30.17
2017-11-09T20:20:08.146Z,32.53
2017-11-09T20:22:35.710Z,30.77
2017-11-09T20:25:03.229Z,33.50
2017-11-09T20:27:30.758Z,31.93
2017-11-09T20:29:58.410Z,32.17
2017-11-09T20:32:25.946Z,34.60
2017-11-09T20:34:53.551Z,36.63
2017-11-09T20:37:21.457Z,35.90
2017-11-09T20:39:51.389Z,32.90
2017-11-09T20:42:18.906Z,35.73
2017-11-09T20:44:46.931Z,35.83
2017-11-09T20:47:14.456Z,37.37
2017-11-09T20:49:41.985Z,33.37
2017-11-09T20:52:09.691Z,34.53
2017-11-09T20:54:37.215Z,34.37
2017-11-09T20:57:04.763Z,35.13
2017-11-09T20:59:32.878Z,39.50
2017-11-09T21:02:00.403Z,35.90
2017-11-09T21:04:27.935Z,38.07
2017-11-09T21:06:55.702Z,38.60
2017-11-09T21:09:23.253Z,41.17
2017-11-09T21:11:50.783Z,40.43
2017-11-09T21:14:18.530Z,44.10
2017-11-09T21:16:46.332Z,45.70
2017-11-09T21:19:13.866Z,41.03
2017-11-09T21:21:41.450Z,40.67
2017-11-09T21:24:09.009Z,43.10
2017-11-09T21:26:36.536Z,39.73
2017-11-09T21:29:04.089Z,39.60
2017-11-09T21:31:31.645Z,39.97
2017-11-09T21:33:59.169Z,39.67
2017-11-09T21:36:26.886Z,38.93
2017-11-09T21:38:54.419Z,41.57
2017-11-09T21:41:21.936Z,45.10
2017-11-09T21:43:49.701Z,41.27
2017-11-09T21:46:17.226Z,43.43
2017-11-09T21:48:44.738Z,40.90
2017-11-09T21:51:12.293Z,40.10
2017-11-09T21:53:39.865Z,46.20
2017-11-09T21:56:07.384Z,41.53
2017-11-09T21:58:34.917Z,40.30
2017-11-09T22:01:02.613Z,43.90
2017-11-09T22:03:30.147Z,43.50
2017-11-09T22:05:57.681Z,41.90
2017-11-09T22:08:25.642Z,44.67
2017-11-09T22:10:53.160Z,43.20
2017-11-09T22:13:20.717Z,44.00
2017-11-09T22:15:48.271Z,45.93
2017-11-09T22:18:15.833Z,45.10
2017-11-09T22:20:43.352Z,43.10
2017-11-09T22:23:11.006Z,47.10
2017-11-09T22:25:38.526Z,40.37
2017-11-09T22:28:06.060Z,46.63
2017-11-09T22:30:33.796Z,44.63
2017-11-09T22:33:01.321Z,43.20
2017-11-09T22:35:28.908Z,47.50
2017-11-09T22:37:56.464Z,49.27
2017-11-09T22:40:23.987Z,47.43
2017-11-09T22:42:51.585Z,47.40
2017-11-09T22:45:19.121Z,44.60
2017-11-09T22:47:46.659Z,45.30
2017-11-09T22:50:14.286Z,43.83
2017-11-09T22:52:42.062Z,46.03
2017-11-09T22:55:09.588Z,45.37
2017-11-09T22:57:37.176Z,48.03
2017-11-09T23:00:04.756Z,47.33
2017-11-09T23:02:32.282Z,50.07
2017-11-09T23:04:59.824Z,48.27
2017-11-09T23:07:27.346Z,44.00
2017-11-09T23:09:55.034Z,45.83
2017-11-09T23:12:22.577Z,44.97
2017-11-09T23:14:50.103Z,42.43
2017-11-09T23:17:17.684Z,47.30
2017-11-09T23:19:45.205Z,49.57
2017-11-09T23:22:12.722Z,47.37
2017-11-09T23:24:40.308Z,43.93
2017-11-09T23:27:07.870Z,47.67
2017-11-09T23:29:39.170Z,49.17
2017-11-09T23:32:06.835Z,46.00
2017-11-09T23:34:34.357Z,46.50
2017-11-09T23:37:01.881Z,46.20
2017-11-09T23:39:29.647Z,44.57
2017-11-09T23:41:57.173Z,44.60
2017-11-09T23:44:24.695Z,41.37
2017-11-09T23:46:52.294Z,39.80
2017-11-09T23:49:19.826Z,41.13
2017-11-09T23:51:47.359Z,42.07
2017-11-09T23:54:14.937Z,41.20
2017-11-09T23:56:42.458Z,38.40
2017-11-09T23:59:09.987Z,40.23
